LFPV

Villacoublay-Vélizy (BA 107) Air Base

Airport
ICAO code
LFPV
Summary
ICAO Region
EUR
ICAO Territory
Location

, Ile-de-France

Serving
Villacoublay
Elevation
584 ft
Coordinates
48° 46' 28" N , 2° 12' 6" E
Metar
LFPV 160630Z AUTO 26013KT 9999 BKN020 BKN028 OVC060 07/04 Q1013 TEMPO 4900 -SHRA BKN009 BKN015TCU

Runways

Designator Length Width Surface Rops
9/27 1813 45 ASP No/No

Airport map

Aerial View

SKYbrary Partners:

Safety knowledge contributed by: